sensor_id;sensor_type;location;lat;lon;timestamp;P1;durP1;ratioP1;P2;durP2;ratioP2
52468;SDS011;38381;53.688;10.776;2023-11-19T00:00:45;8.95;;;7.75;;
52468;SDS011;38381;53.688;10.776;2023-11-19T00:05:45;10.20;;;8.65;;
52468;SDS011;38381;53.688;10.776;2023-11-19T00:10:46;8.20;;;6.90;;
52468;SDS011;38381;53.688;10.776;2023-11-19T00:15:46;7.60;;;6.82;;
52468;SDS011;38381;53.688;10.776;2023-11-19T00:20:47;9.25;;;7.18;;
52468;SDS011;38381;53.688;10.776;2023-11-19T00:25:48;9.32;;;8.30;;
52468;SDS011;38381;53.688;10.776;2023-11-19T00:30:48;8.52;;;7.68;;
52468;SDS011;38381;53.688;10.776;2023-11-19T00:35:49;9.30;;;8.25;;
52468;SDS011;38381;53.688;10.776;2023-11-19T00:40:49;7.53;;;6.70;;
52468;SDS011;38381;53.688;10.776;2023-11-19T00:45:50;8.48;;;7.68;;
52468;SDS011;38381;53.688;10.776;2023-11-19T00:50:51;8.60;;;7.80;;
52468;SDS011;38381;53.688;10.776;2023-11-19T00:55:51;7.90;;;7.20;;
52468;SDS011;38381;53.688;10.776;2023-11-19T01:00:51;6.32;;;5.70;;
52468;SDS011;38381;53.688;10.776;2023-11-19T01:05:52;7.13;;;6.53;;
52468;SDS011;38381;53.688;10.776;2023-11-19T01:10:52;6.60;;;5.82;;
52468;SDS011;38381;53.688;10.776;2023-11-19T01:15:53;5.57;;;5.00;;
52468;SDS011;38381;53.688;10.776;2023-11-19T01:20:53;6.25;;;5.65;;
52468;SDS011;38381;53.688;10.776;2023-11-19T01:25:54;7.10;;;6.40;;
52468;SDS011;38381;53.688;10.776;2023-11-19T01:30:54;5.72;;;5.22;;
52468;SDS011;38381;53.688;10.776;2023-11-19T01:35:55;5.82;;;5.18;;
52468;SDS011;38381;53.688;10.776;2023-11-19T01:40:58;7.88;;;5.93;;
52468;SDS011;38381;53.688;10.776;2023-11-19T01:45:59;5.30;;;4.80;;
52468;SDS011;38381;53.688;10.776;2023-11-19T01:51:00;5.13;;;4.63;;
52468;SDS011;38381;53.688;10.776;2023-11-19T01:56:02;5.00;;;4.25;;
52468;SDS011;38381;53.688;10.776;2023-11-19T02:01:03;4.30;;;3.90;;
52468;SDS011;38381;53.688;10.776;2023-11-19T02:06:05;5.00;;;4.20;;
52468;SDS011;38381;53.688;10.776;2023-11-19T02:11:07;3.83;;;3.43;;
52468;SDS011;38381;53.688;10.776;2023-11-19T02:16:08;4.35;;;3.92;;
52468;SDS011;38381;53.688;10.776;2023-11-19T02:21:11;4.65;;;3.83;;
52468;SDS011;38381;53.688;10.776;2023-11-19T02:26:17;4.20;;;3.80;;
52468;SDS011;38381;53.688;10.776;2023-11-19T02:31:22;3.85;;;3.35;;
52468;SDS011;38381;53.688;10.776;2023-11-19T02:36:23;3.97;;;3.58;;
52468;SDS011;38381;53.688;10.776;2023-11-19T02:41:24;4.07;;;3.67;;
52468;SDS011;38381;53.688;10.776;2023-11-19T02:46:24;4.50;;;3.30;;
52468;SDS011;38381;53.688;10.776;2023-11-19T02:51:24;3.42;;;3.13;;
52468;SDS011;38381;53.688;10.776;2023-11-19T02:56:25;3.80;;;3.25;;
52468;SDS011;38381;53.688;10.776;2023-11-19T03:01:25;3.47;;;3.17;;
52468;SDS011;38381;53.688;10.776;2023-11-19T03:06:34;4.03;;;2.97;;
52468;SDS011;38381;53.688;10.776;2023-11-19T03:11:34;4.03;;;2.90;;
52468;SDS011;38381;53.688;10.776;2023-11-19T03:16:34;2.60;;;2.40;;
52468;SDS011;38381;53.688;10.776;2023-11-19T03:21:35;2.90;;;2.50;;
52468;SDS011;38381;53.688;10.776;2023-11-19T03:26:36;2.80;;;2.53;;
52468;SDS011;38381;53.688;10.776;2023-11-19T03:31:41;2.30;;;2.10;;
52468;SDS011;38381;53.688;10.776;2023-11-19T03:36:42;2.70;;;2.47;;
52468;SDS011;38381;53.688;10.776;2023-11-19T03:41:45;2.40;;;2.20;;
52468;SDS011;38381;53.688;10.776;2023-11-19T03:46:47;2.67;;;2.33;;
52468;SDS011;38381;53.688;10.776;2023-11-19T03:51:47;2.63;;;2.42;;
52468;SDS011;38381;53.688;10.776;2023-11-19T03:56:48;2.50;;;2.30;;
52468;SDS011;38381;53.688;10.776;2023-11-19T04:01:48;2.47;;;2.28;;
52468;SDS011;38381;53.688;10.776;2023-11-19T04:06:48;3.40;;;2.58;;
52468;SDS011;38381;53.688;10.776;2023-11-19T04:11:49;3.22;;;2.92;;
52468;SDS011;38381;53.688;10.776;2023-11-19T04:16:49;2.33;;;2.00;;
52468;SDS011;38381;53.688;10.776;2023-11-19T04:21:51;3.33;;;3.03;;
52468;SDS011;38381;53.688;10.776;2023-11-19T04:26:52;3.38;;;3.08;;
52468;SDS011;38381;53.688;10.776;2023-11-19T04:31:52;3.25;;;2.95;;
52468;SDS011;38381;53.688;10.776;2023-11-19T04:36:53;3.42;;;3.10;;
52468;SDS011;38381;53.688;10.776;2023-11-19T04:41:54;2.90;;;2.60;;
52468;SDS011;38381;53.688;10.776;2023-11-19T04:46:54;3.53;;;3.22;;
52468;SDS011;38381;53.688;10.776;2023-11-19T04:51:55;3.83;;;3.53;;
52468;SDS011;38381;53.688;10.776;2023-11-19T04:56:55;4.32;;;3.95;;
52468;SDS011;38381;53.688;10.776;2023-11-19T05:01:55;4.13;;;3.73;;
52468;SDS011;38381;53.688;10.776;2023-11-19T05:06:56;3.35;;;3.05;;
52468;SDS011;38381;53.688;10.776;2023-11-19T05:11:56;3.67;;;3.38;;
52468;SDS011;38381;53.688;10.776;2023-11-19T05:16:57;3.45;;;3.05;;
52468;SDS011;38381;53.688;10.776;2023-11-19T05:21:57;4.30;;;2.88;;
52468;SDS011;38381;53.688;10.776;2023-11-19T05:26:58;3.00;;;2.70;;
52468;SDS011;38381;53.688;10.776;2023-11-19T05:31:58;4.50;;;3.22;;
52468;SDS011;38381;53.688;10.776;2023-11-19T05:36:58;4.47;;;4.07;;
52468;SDS011;38381;53.688;10.776;2023-11-19T05:41:59;4.35;;;3.75;;
52468;SDS011;38381;53.688;10.776;2023-11-19T05:47:00;4.78;;;3.97;;
52468;SDS011;38381;53.688;10.776;2023-11-19T05:52:00;5.70;;;4.40;;
52468;SDS011;38381;53.688;10.776;2023-11-19T05:57:04;5.20;;;4.70;;
52468;SDS011;38381;53.688;10.776;2023-11-19T06:02:05;15.53;;;5.27;;
52468;SDS011;38381;53.688;10.776;2023-11-19T06:07:05;5.07;;;4.60;;
52468;SDS011;38381;53.688;10.776;2023-11-19T06:12:06;5.15;;;4.57;;
52468;SDS011;38381;53.688;10.776;2023-11-19T06:17:07;32.97;;;6.65;;
52468;SDS011;38381;53.688;10.776;2023-11-19T06:22:08;5.85;;;5.35;;
52468;SDS011;38381;53.688;10.776;2023-11-19T06:27:09;6.25;;;5.57;;
52468;SDS011;38381;53.688;10.776;2023-11-19T06:32:09;7.28;;;5.70;;
52468;SDS011;38381;53.688;10.776;2023-11-19T06:37:10;21.02;;;7.38;;
52468;SDS011;38381;53.688;10.776;2023-11-19T06:42:10;9.43;;;7.10;;
52468;SDS011;38381;53.688;10.776;2023-11-19T06:47:11;8.80;;;7.82;;
52468;SDS011;38381;53.688;10.776;2023-11-19T06:52:11;9.85;;;6.93;;
52468;SDS011;38381;53.688;10.776;2023-11-19T06:57:12;8.32;;;7.53;;
52468;SDS011;38381;53.688;10.776;2023-11-19T07:02:12;15.82;;;7.07;;
52468;SDS011;38381;53.688;10.776;2023-11-19T07:07:13;10.85;;;7.78;;
52468;SDS011;38381;53.688;10.776;2023-11-19T07:12:15;12.25;;;8.20;;
52468;SDS011;38381;53.688;10.776;2023-11-19T07:17:15;12.50;;;9.15;;
52468;SDS011;38381;53.688;10.776;2023-11-19T07:22:17;14.77;;;9.37;;
52468;SDS011;38381;53.688;10.776;2023-11-19T07:27:18;11.50;;;7.75;;
52468;SDS011;38381;53.688;10.776;2023-11-19T07:32:18;24.05;;;8.35;;
52468;SDS011;38381;53.688;10.776;2023-11-19T07:37:19;9.77;;;8.13;;
52468;SDS011;38381;53.688;10.776;2023-11-19T07:42:19;15.95;;;9.32;;
52468;SDS011;38381;53.688;10.776;2023-11-19T07:47:20;14.80;;;10.63;;
52468;SDS011;38381;53.688;10.776;2023-11-19T07:52:23;15.63;;;9.65;;
52468;SDS011;38381;53.688;10.776;2023-11-19T07:57:23;21.15;;;8.85;;
52468;SDS011;38381;53.688;10.776;2023-11-19T08:02:24;15.60;;;9.30;;
52468;SDS011;38381;53.688;10.776;2023-11-19T08:07:25;18.55;;;9.48;;
52468;SDS011;38381;53.688;10.776;2023-11-19T08:12:25;14.23;;;9.50;;
52468;SDS011;38381;53.688;10.776;2023-11-19T08:17:26;14.23;;;8.25;;
52468;SDS011;38381;53.688;10.776;2023-11-19T08:22:26;14.93;;;8.95;;
52468;SDS011;38381;53.688;10.776;2023-11-19T08:27:26;16.80;;;8.40;;
52468;SDS011;38381;53.688;10.776;2023-11-19T08:32:27;12.50;;;7.47;;
52468;SDS011;38381;53.688;10.776;2023-11-19T08:37:27;14.38;;;7.90;;
52468;SDS011;38381;53.688;10.776;2023-11-19T08:42:28;23.45;;;7.85;;
52468;SDS011;38381;53.688;10.776;2023-11-19T08:47:29;15.07;;;6.68;;
52468;SDS011;38381;53.688;10.776;2023-11-19T08:52:30;15.25;;;7.28;;
52468;SDS011;38381;53.688;10.776;2023-11-19T08:57:31;17.40;;;6.35;;
52468;SDS011;38381;53.688;10.776;2023-11-19T09:02:32;19.97;;;7.10;;
52468;SDS011;38381;53.688;10.776;2023-11-19T09:07:34;13.05;;;6.65;;
52468;SDS011;38381;53.688;10.776;2023-11-19T09:12:34;17.00;;;6.28;;
52468;SDS011;38381;53.688;10.776;2023-11-19T09:17:35;15.23;;;6.40;;
52468;SDS011;38381;53.688;10.776;2023-11-19T09:22:35;16.38;;;6.68;;
52468;SDS011;38381;53.688;10.776;2023-11-19T09:27:36;13.65;;;6.43;;
52468;SDS011;38381;53.688;10.776;2023-11-19T09:32:36;10.60;;;5.32;;
52468;SDS011;38381;53.688;10.776;2023-11-19T09:37:37;16.30;;;5.80;;
52468;SDS011;38381;53.688;10.776;2023-11-19T09:42:47;12.37;;;6.30;;
52468;SDS011;38381;53.688;10.776;2023-11-19T09:47:47;14.18;;;6.10;;
52468;SDS011;38381;53.688;10.776;2023-11-19T09:52:52;18.10;;;5.88;;
52468;SDS011;38381;53.688;10.776;2023-11-19T09:57:53;13.18;;;6.68;;
52468;SDS011;38381;53.688;10.776;2023-11-19T10:02:54;14.50;;;6.93;;
52468;SDS011;38381;53.688;10.776;2023-11-19T10:07:57;12.07;;;5.72;;
52468;SDS011;38381;53.688;10.776;2023-11-19T10:12:58;12.60;;;6.35;;
52468;SDS011;38381;53.688;10.776;2023-11-19T10:18:00;15.23;;;6.03;;
52468;SDS011;38381;53.688;10.776;2023-11-19T10:23:01;17.42;;;7.10;;
52468;SDS011;38381;53.688;10.776;2023-11-19T10:28:01;17.80;;;6.43;;
52468;SDS011;38381;53.688;10.776;2023-11-19T10:38:13;17.02;;;6.25;;
52468;SDS011;38381;53.688;10.776;2023-11-19T10:43:18;14.32;;;6.18;;
52468;SDS011;38381;53.688;10.776;2023-11-19T10:48:25;11.25;;;5.60;;
52468;SDS011;38381;53.688;10.776;2023-11-19T10:58:29;16.90;;;5.47;;
52468;SDS011;38381;53.688;10.776;2023-11-19T11:03:39;9.70;;;5.00;;
52468;SDS011;38381;53.688;10.776;2023-11-19T11:08:40;13.40;;;5.63;;
52468;SDS011;38381;53.688;10.776;2023-11-19T11:13:42;12.60;;;4.93;;
52468;SDS011;38381;53.688;10.776;2023-11-19T11:18:44;17.50;;;6.22;;
52468;SDS011;38381;53.688;10.776;2023-11-19T11:40:24;24.55;;;6.45;;
52468;SDS011;38381;53.688;10.776;2023-11-19T11:45:36;13.93;;;4.82;;
52468;SDS011;38381;53.688;10.776;2023-11-19T11:50:51;12.88;;;5.63;;
52468;SDS011;38381;53.688;10.776;2023-11-19T11:55:53;12.35;;;5.70;;
52468;SDS011;38381;53.688;10.776;2023-11-19T12:05:58;18.13;;;6.05;;
52468;SDS011;38381;53.688;10.776;2023-11-19T12:10:58;15.00;;;4.50;;
52468;SDS011;38381;53.688;10.776;2023-11-19T12:21:01;14.23;;;7.00;;
52468;SDS011;38381;53.688;10.776;2023-11-19T12:26:02;13.82;;;4.78;;
52468;SDS011;38381;53.688;10.776;2023-11-19T12:31:09;15.85;;;5.78;;
52468;SDS011;38381;53.688;10.776;2023-11-19T12:36:10;14.32;;;5.28;;
52468;SDS011;38381;53.688;10.776;2023-11-19T12:41:10;14.70;;;5.13;;
52468;SDS011;38381;53.688;10.776;2023-11-19T12:46:22;19.50;;;5.50;;
52468;SDS011;38381;53.688;10.776;2023-11-19T12:51:30;19.40;;;5.47;;
52468;SDS011;38381;53.688;10.776;2023-11-19T12:56:31;9.75;;;4.63;;
52468;SDS011;38381;53.688;10.776;2023-11-19T13:01:31;12.43;;;5.20;;
52468;SDS011;38381;53.688;10.776;2023-11-19T13:06:35;9.93;;;4.57;;
52468;SDS011;38381;53.688;10.776;2023-11-19T13:11:45;18.75;;;6.43;;
52468;SDS011;38381;53.688;10.776;2023-11-19T13:16:46;16.45;;;5.78;;
52468;SDS011;38381;53.688;10.776;2023-11-19T13:21:47;15.57;;;5.80;;
52468;SDS011;38381;53.688;10.776;2023-11-19T13:26:48;11.85;;;5.38;;
52468;SDS011;38381;53.688;10.776;2023-11-19T13:31:48;10.10;;;5.57;;
52468;SDS011;38381;53.688;10.776;2023-11-19T13:36:49;14.27;;;5.60;;
52468;SDS011;38381;53.688;10.776;2023-11-19T13:41:50;13.20;;;4.97;;
52468;SDS011;38381;53.688;10.776;2023-11-19T13:46:50;16.92;;;6.18;;
52468;SDS011;38381;53.688;10.776;2023-11-19T13:51:51;12.50;;;5.43;;
52468;SDS011;38381;53.688;10.776;2023-11-19T13:56:57;15.35;;;6.13;;
52468;SDS011;38381;53.688;10.776;2023-11-19T14:02:01;8.98;;;4.03;;
52468;SDS011;38381;53.688;10.776;2023-11-19T14:07:02;11.27;;;4.90;;
52468;SDS011;38381;53.688;10.776;2023-11-19T14:12:03;19.60;;;5.95;;
52468;SDS011;38381;53.688;10.776;2023-11-19T14:17:03;12.32;;;5.05;;
52468;SDS011;38381;53.688;10.776;2023-11-19T14:22:04;13.18;;;5.93;;
52468;SDS011;38381;53.688;10.776;2023-11-19T14:27:05;10.65;;;4.55;;
52468;SDS011;38381;53.688;10.776;2023-11-19T14:32:05;13.25;;;6.10;;
52468;SDS011;38381;53.688;10.776;2023-11-19T14:37:06;11.13;;;6.88;;
52468;SDS011;38381;53.688;10.776;2023-11-19T14:42:06;17.95;;;5.93;;
52468;SDS011;38381;53.688;10.776;2023-11-19T14:47:08;13.83;;;5.00;;
52468;SDS011;38381;53.688;10.776;2023-11-19T14:52:09;23.88;;;6.15;;
52468;SDS011;38381;53.688;10.776;2023-11-19T14:57:10;15.88;;;6.18;;
52468;SDS011;38381;53.688;10.776;2023-11-19T15:02:11;18.73;;;7.03;;
52468;SDS011;38381;53.688;10.776;2023-11-19T15:07:11;8.30;;;4.57;;
52468;SDS011;38381;53.688;10.776;2023-11-19T15:12:11;12.00;;;4.70;;
52468;SDS011;38381;53.688;10.776;2023-11-19T15:17:12;12.32;;;5.57;;
52468;SDS011;38381;53.688;10.776;2023-11-19T15:22:12;10.70;;;4.90;;
52468;SDS011;38381;53.688;10.776;2023-11-19T15:27:13;12.98;;;4.47;;
52468;SDS011;38381;53.688;10.776;2023-11-19T15:32:13;9.40;;;4.15;;
52468;SDS011;38381;53.688;10.776;2023-11-19T15:37:14;11.52;;;6.80;;
52468;SDS011;38381;53.688;10.776;2023-11-19T15:42:15;10.57;;;4.68;;
52468;SDS011;38381;53.688;10.776;2023-11-19T15:47:16;9.35;;;4.63;;
52468;SDS011;38381;53.688;10.776;2023-11-19T15:52:16;11.77;;;4.78;;
52468;SDS011;38381;53.688;10.776;2023-11-19T15:57:16;15.35;;;4.82;;
52468;SDS011;38381;53.688;10.776;2023-11-19T16:02:17;10.45;;;4.22;;
52468;SDS011;38381;53.688;10.776;2023-11-19T16:07:17;9.68;;;3.50;;
52468;SDS011;38381;53.688;10.776;2023-11-19T16:12:20;5.65;;;3.90;;
52468;SDS011;38381;53.688;10.776;2023-11-19T16:17:20;9.57;;;3.35;;
52468;SDS011;38381;53.688;10.776;2023-11-19T16:22:21;7.82;;;2.72;;
52468;SDS011;38381;53.688;10.776;2023-11-19T16:27:21;6.88;;;2.88;;
52468;SDS011;38381;53.688;10.776;2023-11-19T16:32:22;5.23;;;2.83;;
52468;SDS011;38381;53.688;10.776;2023-11-19T16:37:22;5.68;;;2.53;;
52468;SDS011;38381;53.688;10.776;2023-11-19T16:42:23;3.83;;;2.40;;
52468;SDS011;38381;53.688;10.776;2023-11-19T16:47:23;11.88;;;5.10;;
52468;SDS011;38381;53.688;10.776;2023-11-19T16:52:24;13.68;;;6.72;;
52468;SDS011;38381;53.688;10.776;2023-11-19T16:57:28;7.35;;;3.75;;
52468;SDS011;38381;53.688;10.776;2023-11-19T17:02:29;9.63;;;4.55;;
52468;SDS011;38381;53.688;10.776;2023-11-19T17:07:30;10.40;;;6.22;;
52468;SDS011;38381;53.688;10.776;2023-11-19T17:12:30;8.05;;;4.70;;
52468;SDS011;38381;53.688;10.776;2023-11-19T17:17:31;7.20;;;3.60;;
52468;SDS011;38381;53.688;10.776;2023-11-19T17:22:38;10.05;;;4.05;;
52468;SDS011;38381;53.688;10.776;2023-11-19T17:27:40;6.47;;;3.80;;
52468;SDS011;38381;53.688;10.776;2023-11-19T17:32:43;9.75;;;3.90;;
52468;SDS011;38381;53.688;10.776;2023-11-19T17:37:43;10.90;;;5.47;;
52468;SDS011;38381;53.688;10.776;2023-11-19T17:42:44;11.97;;;5.27;;
52468;SDS011;38381;53.688;10.776;2023-11-19T17:47:44;7.25;;;4.15;;
52468;SDS011;38381;53.688;10.776;2023-11-19T17:52:44;8.10;;;3.78;;
52468;SDS011;38381;53.688;10.776;2023-11-19T17:57:45;7.93;;;4.07;;
52468;SDS011;38381;53.688;10.776;2023-11-19T18:02:46;10.75;;;3.92;;
52468;SDS011;38381;53.688;10.776;2023-11-19T18:07:51;9.30;;;4.93;;
52468;SDS011;38381;53.688;10.776;2023-11-19T18:12:52;9.32;;;4.15;;
52468;SDS011;38381;53.688;10.776;2023-11-19T18:17:53;8.25;;;4.80;;
52468;SDS011;38381;53.688;10.776;2023-11-19T18:22:53;9.23;;;3.40;;
52468;SDS011;38381;53.688;10.776;2023-11-19T18:27:54;8.63;;;3.45;;
52468;SDS011;38381;53.688;10.776;2023-11-19T18:32:55;9.70;;;3.67;;
52468;SDS011;38381;53.688;10.776;2023-11-19T18:37:55;5.22;;;2.90;;
52468;SDS011;38381;53.688;10.776;2023-11-19T18:42:55;7.60;;;3.85;;
52468;SDS011;38381;53.688;10.776;2023-11-19T18:47:56;13.13;;;3.83;;
52468;SDS011;38381;53.688;10.776;2023-11-19T18:52:56;7.82;;;3.70;;
52468;SDS011;38381;53.688;10.776;2023-11-19T18:57:57;9.30;;;4.18;;
52468;SDS011;38381;53.688;10.776;2023-11-19T19:02:57;8.90;;;3.78;;
52468;SDS011;38381;53.688;10.776;2023-11-19T19:07:58;7.05;;;3.53;;
52468;SDS011;38381;53.688;10.776;2023-11-19T19:12:59;7.32;;;3.08;;
52468;SDS011;38381;53.688;10.776;2023-11-19T19:17:59;6.60;;;2.85;;
52468;SDS011;38381;53.688;10.776;2023-11-19T19:23:00;8.45;;;3.47;;
52468;SDS011;38381;53.688;10.776;2023-11-19T19:28:01;7.22;;;4.68;;
52468;SDS011;38381;53.688;10.776;2023-11-19T19:33:02;7.93;;;2.92;;
52468;SDS011;38381;53.688;10.776;2023-11-19T19:38:03;7.57;;;3.97;;
52468;SDS011;38381;53.688;10.776;2023-11-19T19:43:03;7.18;;;3.08;;
52468;SDS011;38381;53.688;10.776;2023-11-19T19:48:04;8.15;;;3.40;;
52468;SDS011;38381;53.688;10.776;2023-11-19T19:53:05;9.18;;;3.53;;
52468;SDS011;38381;53.688;10.776;2023-11-19T19:58:06;7.53;;;3.80;;
52468;SDS011;38381;53.688;10.776;2023-11-19T20:03:08;5.77;;;3.60;;
52468;SDS011;38381;53.688;10.776;2023-11-19T20:08:08;7.13;;;4.50;;
52468;SDS011;38381;53.688;10.776;2023-11-19T20:13:09;9.38;;;4.18;;
52468;SDS011;38381;53.688;10.776;2023-11-19T20:18:09;7.78;;;4.75;;
52468;SDS011;38381;53.688;10.776;2023-11-19T20:23:12;6.72;;;4.97;;
52468;SDS011;38381;53.688;10.776;2023-11-19T20:28:12;8.20;;;4.50;;
52468;SDS011;38381;53.688;10.776;2023-11-19T20:33:13;10.43;;;5.10;;
52468;SDS011;38381;53.688;10.776;2023-11-19T20:38:13;11.02;;;5.45;;
52468;SDS011;38381;53.688;10.776;2023-11-19T20:43:14;10.40;;;4.97;;
52468;SDS011;38381;53.688;10.776;2023-11-19T20:48:15;6.87;;;4.57;;
52468;SDS011;38381;53.688;10.776;2023-11-19T20:53:15;11.15;;;5.20;;
52468;SDS011;38381;53.688;10.776;2023-11-19T20:58:16;9.95;;;5.13;;
52468;SDS011;38381;53.688;10.776;2023-11-19T21:03:16;9.07;;;4.95;;
52468;SDS011;38381;53.688;10.776;2023-11-19T21:08:18;11.63;;;4.95;;
52468;SDS011;38381;53.688;10.776;2023-11-19T21:13:19;10.05;;;6.03;;
52468;SDS011;38381;53.688;10.776;2023-11-19T21:18:19;11.07;;;6.45;;
52468;SDS011;38381;53.688;10.776;2023-11-19T21:23:20;10.13;;;5.63;;
52468;SDS011;38381;53.688;10.776;2023-11-19T21:28:28;7.00;;;5.20;;
52468;SDS011;38381;53.688;10.776;2023-11-19T21:33:29;10.40;;;5.25;;
52468;SDS011;38381;53.688;10.776;2023-11-19T21:38:30;12.68;;;5.50;;
52468;SDS011;38381;53.688;10.776;2023-11-19T21:43:31;8.48;;;6.00;;
52468;SDS011;38381;53.688;10.776;2023-11-19T21:48:33;13.50;;;6.03;;
52468;SDS011;38381;53.688;10.776;2023-11-19T21:53:34;8.73;;;5.23;;
52468;SDS011;38381;53.688;10.776;2023-11-19T21:58:34;13.15;;;7.30;;
52468;SDS011;38381;53.688;10.776;2023-11-19T22:03:35;8.38;;;5.40;;
52468;SDS011;38381;53.688;10.776;2023-11-19T22:08:36;10.38;;;6.45;;
52468;SDS011;38381;53.688;10.776;2023-11-19T22:13:37;11.43;;;6.13;;
52468;SDS011;38381;53.688;10.776;2023-11-19T22:18:38;12.27;;;6.90;;
52468;SDS011;38381;53.688;10.776;2023-11-19T22:23:38;12.00;;;5.78;;
52468;SDS011;38381;53.688;10.776;2023-11-19T22:28:39;11.38;;;5.40;;
52468;SDS011;38381;53.688;10.776;2023-11-19T22:33:40;13.02;;;6.03;;
52468;SDS011;38381;53.688;10.776;2023-11-19T22:38:42;13.15;;;7.15;;
52468;SDS011;38381;53.688;10.776;2023-11-19T22:43:45;11.48;;;6.45;;
52468;SDS011;38381;53.688;10.776;2023-11-19T22:48:46;12.77;;;5.45;;
52468;SDS011;38381;53.688;10.776;2023-11-19T22:53:46;8.10;;;6.03;;
52468;SDS011;38381;53.688;10.776;2023-11-19T22:58:47;12.48;;;6.15;;
52468;SDS011;38381;53.688;10.776;2023-11-19T23:03:49;10.38;;;6.05;;
52468;SDS011;38381;53.688;10.776;2023-11-19T23:08:49;9.55;;;5.70;;
52468;SDS011;38381;53.688;10.776;2023-11-19T23:13:50;8.20;;;5.32;;
52468;SDS011;38381;53.688;10.776;2023-11-19T23:18:51;7.55;;;4.93;;
52468;SDS011;38381;53.688;10.776;2023-11-19T23:23:52;19.55;;;6.97;;
52468;SDS011;38381;53.688;10.776;2023-11-19T23:28:52;9.75;;;4.80;;
52468;SDS011;38381;53.688;10.776;2023-11-19T23:33:53;7.32;;;4.85;;
52468;SDS011;38381;53.688;10.776;2023-11-19T23:38:53;8.23;;;4.87;;
52468;SDS011;38381;53.688;10.776;2023-11-19T23:43:54;8.90;;;4.40;;
52468;SDS011;38381;53.688;10.776;2023-11-19T23:48:54;6.35;;;3.97;;
52468;SDS011;38381;53.688;10.776;2023-11-19T23:53:55;9.80;;;4.40;;
52468;SDS011;38381;53.688;10.776;2023-11-19T23:58:56;7.88;;;3.78;;
